Observation data for Memphis on 07/20/2019      Previous  Date       Current Mesonet Observations  Soil Data  Daily Summary Page  Observations in Plain Language
KMES 200500Z 15007KT 31/14 A2987 RMK A01 T03070141  RH  038%=      5-min Rain = 0
KMES 200505Z 15008G13KT 31/14 A2987 RMK A01 T03060142  RH  038%=      5-min Rain = 0
KMES 200510Z 15008KT 31/14 A2987 RMK A01 T03050141  RH  038%=      5-min Rain = 0
KMES 200515Z 15009G14KT 31/14 A2987 RMK A01 T03050141  RH  038%=      5-min Rain = 0
KMES 200520Z 15008G13KT 30/14 A2987 RMK A01 T03030141  RH  039%=      5-min Rain = 0
KMES 200525Z 15007G12KT 30/14 A2987 RMK A01 T03020141  RH  039%=      5-min Rain = 0
KMES 200530Z 15008KT 30/14 A2987 RMK A01 T03000141  RH  039%=      5-min Rain = 0
KMES 200535Z 15008KT 30/14 A2987 RMK A01 T02990140  RH  039%=      5-min Rain = 0
KMES 200540Z 16007KT 30/14 A2987 RMK A01 T02980140  RH  040%=      5-min Rain = 0
KMES 200545Z 15007KT 30/14 A2987 RMK A01 T02970139  RH  040%=      5-min Rain = 0
KMES 200550Z 16007KT 30/14 A2987 RMK A01 T02960140  RH  040%=      5-min Rain = 0
KMES 200555Z 15007KT 30/14 A2987 RMK A01 T02950140  RH  040%=      5-min Rain = 0
KMES 200600Z 15007KT 29/14 A2987 RMK A01 T02940139  RH  040%=      5-min Rain = 0
KMES 200605Z 15007KT 29/14 A2987 RMK A01 T02930139  RH  041%=      5-min Rain = 0
KMES 200610Z 15007KT 29/14 A2987 RMK A01 T02920139  RH  041%=      5-min Rain = 0
KMES 200615Z 15006KT 29/14 A2987 RMK A01 T02910140  RH  041%=      5-min Rain = 0
KMES 200620Z 16006KT 29/14 A2987 RMK A01 T02890141  RH  042%=      5-min Rain = 0
KMES 200625Z 15005KT 29/14 A2987 RMK A01 T02870141  RH  043%=      5-min Rain = 0
KMES 200630Z 16005KT 29/14 A2987 RMK A01 T02860141  RH  043%=      5-min Rain = 0
KMES 200635Z 16004KT 29/14 A2987 RMK A01 T02850142  RH  043%=      5-min Rain = 0
KMES 200640Z 17004KT 28/14 A2987 RMK A01 T02830142  RH  044%=      5-min Rain = 0
KMES 200645Z 16003KT 28/14 A2987 RMK A01 T02820143  RH  044%=      5-min Rain = 0
KMES 200650Z 15004KT 28/14 A2987 RMK A01 T02800143  RH  045%=      5-min Rain = 0
KMES 200655Z 16005KT 28/14 A2987 RMK A01 T02790143  RH  045%=      5-min Rain = 0
KMES 200700Z 17004KT 28/14 A2987 RMK A01 T02780144  RH  046%=      5-min Rain = 0
KMES 200705Z 19002KT 28/14 A2987 RMK A01 T02770144  RH  046%=      5-min Rain = 0
KMES 200710Z 20002KT 27/15 A2987 RMK A01 T02740145  RH  047%=      5-min Rain = 0
KMES 200715Z 19002KT 27/15 A2987 RMK A01 T02730145  RH  047%=      5-min Rain = 0
KMES 200720Z 19003KT 27/14 A2987 RMK A01 T02720144  RH  047%=      5-min Rain = 0
KMES 200725Z 18003KT 27/14 A2987 RMK A01 T02730144  RH  047%=      5-min Rain = 0
KMES 200730Z 17004KT 27/14 A2987 RMK A01 T02730144  RH  047%=      5-min Rain = 0
KMES 200735Z 18004KT 27/14 A2987 RMK A01 T02710144  RH  048%=      5-min Rain = 0
KMES 200740Z 19004KT 27/14 A2987 RMK A01 T02720143  RH  047%=      5-min Rain = 0
KMES 200745Z 19004KT 27/14 A2987 RMK A01 T02720143  RH  047%=      5-min Rain = 0
KMES 200750Z 18004KT 27/14 A2987 RMK A01 T02720143  RH  047%=      5-min Rain = 0
KMES 200755Z 17004KT 27/14 A2987 RMK A01 T02710143  RH  047%=      5-min Rain = 0
KMES 200800Z 17004KT 27/14 A2987 RMK A01 T02700143  RH  048%=      5-min Rain = 0
KMES 200805Z 17004KT 27/14 A2987 RMK A01 T02690144  RH  048%=      5-min Rain = 0
KMES 200810Z 18004KT 27/14 A2987 RMK A01 T02680143  RH  048%=      5-min Rain = 0
KMES 200815Z 17004KT 27/14 A2987 RMK A01 T02690143  RH  048%=      5-min Rain = 0
KMES 200820Z 17004KT 27/14 A2987 RMK A01 T02670144  RH  049%=      5-min Rain = 0
KMES 200825Z 16003KT 27/14 A2987 RMK A01 T02650144  RH  049%=      5-min Rain = 0
KMES 200830Z 17003KT 26/14 A2987 RMK A01 T02630143  RH  050%=      5-min Rain = 0
KMES 200835Z 17003KT 26/14 A2987 RMK A01 T02620144  RH  050%=      5-min Rain = 0
KMES 200840Z 17003KT 26/14 A2987 RMK A01 T02610144  RH  051%=      5-min Rain = 0
KMES 200845Z 16003KT 26/15 A2987 RMK A01 T02580146  RH  052%=      5-min Rain = 0
KMES 200850Z 15004KT 26/15 A2987 RMK A01 T02550148  RH  054%=      5-min Rain = 0
KMES 200855Z 16003KT 25/15 A2987 RMK A01 T02520147  RH  055%=      5-min Rain = 0
KMES 200900Z 17003KT 25/15 A2987 RMK A01 T02510146  RH  054%=      5-min Rain = 0
KMES 200905Z 17003KT 25/15 A2987 RMK A01 T02510147  RH  055%=      5-min Rain = 0
KMES 200910Z 16004KT 25/15 A2987 RMK A01 T02500147  RH  055%=      5-min Rain = 0
KMES 200915Z 17003KT 25/15 A2987 RMK A01 T02490147  RH  056%=      5-min Rain = 0
KMES 200920Z 18003KT 25/15 A2987 RMK A01 T02490147  RH  056%=      5-min Rain = 0
KMES 200925Z 18003KT 25/15 A2987 RMK A01 T02490148  RH  056%=      5-min Rain = 0
KMES 200930Z 17004KT 25/15 A2987 RMK A01 T02480148  RH  056%=      5-min Rain = 0
KMES 200935Z 16004KT 25/15 A2987 RMK A01 T02460149  RH  057%=      5-min Rain = 0
KMES 200940Z 16004KT 24/15 A2987 RMK A01 T02430149  RH  058%=      5-min Rain = 0
KMES 200945Z 16005KT 24/15 A2987 RMK A01 T02410149  RH  059%=      5-min Rain = 0
KMES 200950Z 16005KT 24/15 A2987 RMK A01 T02400150  RH  059%=      5-min Rain = 0
KMES 200955Z 16004KT 24/15 A2988 RMK A01 T02410150  RH  059%=      5-min Rain = 0
KMES 201000Z 17004KT 24/15 A2988 RMK A01 T02420149  RH  059%=      5-min Rain = 0
KMES 201005Z 16004KT 24/15 A2988 RMK A01 T02420149  RH  059%=      5-min Rain = 0
KMES 201010Z 16004KT 24/15 A2988 RMK A01 T02410150  RH  059%=      5-min Rain = 0
KMES 201015Z 16004KT 24/15 A2988 RMK A01 T02400150  RH  060%=      5-min Rain = 0
KMES 201020Z 17003KT 24/15 A2988 RMK A01 T02390150  RH  060%=      5-min Rain = 0
KMES 201025Z 16003KT 24/15 A2988 RMK A01 T02380150  RH  060%=      5-min Rain = 0
KMES 201030Z 16003KT 24/15 A2988 RMK A01 T02370151  RH  061%=      5-min Rain = 0
KMES 201035Z 16003KT 24/15 A2988 RMK A01 T02360151  RH  062%=      5-min Rain = 0
KMES 201040Z 17002KT 24/15 A2988 RMK A01 T02350151  RH  062%=      5-min Rain = 0
KMES 201045Z 17003KT 23/15 A2988 RMK A01 T02340151  RH  062%=      5-min Rain = 0
KMES 201050Z 17003KT 23/15 A2988 RMK A01 T02340151  RH  063%=      5-min Rain = 0
KMES 201055Z 17003KT 23/15 A2988 RMK A01 T02330151  RH  063%=      5-min Rain = 0
KMES 201100Z 17003KT 23/15 A2988 RMK A01 T02330151  RH  063%=      5-min Rain = 0
KMES 201105Z 18003KT 23/15 A2988 RMK A01 T02330151  RH  063%=      5-min Rain = 0
KMES 201110Z 18003KT 23/15 A2988 RMK A01 T02330152  RH  063%=      5-min Rain = 0
KMES 201115Z 18003KT 23/15 A2988 RMK A01 T02330152  RH  063%=      5-min Rain = 0
KMES 201120Z 18002KT 23/15 A2988 RMK A01 T02320152  RH  064%=      5-min Rain = 0
KMES 201125Z 18002KT 23/15 A2988 RMK A01 T02310152  RH  064%=      5-min Rain = 0
KMES 201130Z 19001KT 23/15 A2988 RMK A01 T02310152  RH  064%=      5-min Rain = 0
KMES 201135Z 19002KT 23/15 A2988 RMK A01 T02300152  RH  064%=      5-min Rain = 0
KMES 201140Z 19001KT 23/15 A2989 RMK A01 T02300152  RH  064%=      5-min Rain = 0
KMES 201145Z 18001KT 23/15 A2988 RMK A01 T02300152  RH  064%=      5-min Rain = 0
KMES 201150Z 18001KT 23/15 A2988 RMK A01 T02300152  RH  064%=      5-min Rain = 0
KMES 201155Z 18000KT 23/16 A2989 RMK A01 T02300157  RH  066%=      5-min Rain = 0
KMES 201200Z 17000KT 23/16 A2989 RMK A01 T02290159  RH  068%=      5-min Rain = 0
KMES 201205Z 15001KT 23/16 A2989 RMK A01 T02280159  RH  068%=      5-min Rain = 0
KMES 201210Z 16001KT 23/16 A2989 RMK A01 T02300160  RH  068%=      5-min Rain = 0
KMES 201215Z 16002KT 23/16 A2989 RMK A01 T02310156  RH  066%=      5-min Rain = 0
KMES 201220Z 16003KT 23/16 A2989 RMK A01 T02330157  RH  065%=      5-min Rain = 0
KMES 201225Z 16004KT 23/16 A2989 RMK A01 T02320155  RH  065%=      5-min Rain = 0
KMES 201230Z 17003KT 23/16 A2989 RMK A01 T02320157  RH  066%=      5-min Rain = 0
KMES 201235Z 17002KT 24/16 A2989 RMK A01 T02350159  RH  065%=      5-min Rain = 0
KMES 201240Z 17002KT 24/16 A2989 RMK A01 T02390159  RH  064%=      5-min Rain = 0
KMES 201245Z 15003KT 24/16 A2989 RMK A01 T02420159  RH  063%=      5-min Rain = 0
KMES 201250Z 15003KT 24/16 A2989 RMK A01 T02440159  RH  062%=      5-min Rain = 0
KMES 201255Z 15003KT 25/16 A299 RMK A01 T02450160  RH  062%=      5-min Rain = 0
KMES 201300Z 16003KT 25/16 A299 RMK A01 T02470162  RH  062%=      5-min Rain = 0
KMES 201305Z 16003KT 25/16 A299 RMK A01 T02490164  RH  062%=      5-min Rain = 0
KMES 201310Z 15003KT 25/17 A299 RMK A01 T02530166  RH  062%=      5-min Rain = 0
KMES 201315Z 15005KT 26/17 A299 RMK A01 T02570167  RH  060%=      5-min Rain = 0
KMES 201320Z 15005KT 26/17 A299 RMK A01 T02590168  RH  060%=      5-min Rain = 0
KMES 201325Z 15005KT 26/17 A299 RMK A01 T02610167  RH  059%=      5-min Rain = 0
KMES 201330Z 15006KT 26/17 A299 RMK A01 T02630167  RH  058%=      5-min Rain = 0
KMES 201335Z 15006KT 27/17 A299 RMK A01 T02650168  RH  058%=      5-min Rain = 0
KMES 201340Z 15006KT 27/17 A299 RMK A01 T02680168  RH  057%=      5-min Rain = 0
KMES 201345Z 15007KT 27/17 A299 RMK A01 T02690168  RH  056%=      5-min Rain = 0
KMES 201350Z 16007KT 27/17 A299 RMK A01 T02710169  RH  056%=      5-min Rain = 0
KMES 201355Z 16005KT 27/17 A299 RMK A01 T02720170  RH  056%=      5-min Rain = 0
KMES 201400Z 16005KT 28/17 A2991 RMK A01 T02750172  RH  056%=      5-min Rain = 0
KMES 201405Z 15006KT 28/17 A299 RMK A01 T02770173  RH  056%=      5-min Rain = 0
KMES 201410Z 16005KT 28/17 A299 RMK A01 T02790174  RH  056%=      5-min Rain = 0
KMES 201415Z 16005KT 28/17 A299 RMK A01 T02810174  RH  055%=      5-min Rain = 0
KMES 201420Z 15006KT 28/18 A299 RMK A01 T02830175  RH  055%=      5-min Rain = 0
KMES 201425Z 17006KT 29/18 A299 RMK A01 T02850178  RH  055%=      5-min Rain = 0
KMES 201430Z 17005KT 29/18 A299 RMK A01 T02890179  RH  054%=      5-min Rain = 0
KMES 201435Z 18008G15KT 29/18 A299 RMK A01 T02920178  RH  053%=      5-min Rain = 0
KMES 201440Z 19010KT 30/18 A299 RMK A01 T02950178  RH  052%=      5-min Rain = 0
KMES 201445Z 20010G15KT 30/18 A2989 RMK A01 T02980178  RH  051%=      5-min Rain = 0
KMES 201450Z 20012G17KT 30/18 A2989 RMK A01 T03000175  RH  050%=      5-min Rain = 0
KMES 201455Z 20011KT 30/18 A2989 RMK A01 T03020177  RH  050%=      5-min Rain = 0
KMES 201500Z 21010KT 30/18 A2989 RMK A01 T03040177  RH  049%=      5-min Rain = 0
KMES 201505Z 19010KT 31/18 A299 RMK A01 T03050176  RH  048%=      5-min Rain = 0
KMES 201510Z 19010KT 31/18 A299 RMK A01 T03050176  RH  048%=      5-min Rain = 0
KMES 201515Z 18009KT 31/18 A2989 RMK A01 T03070177  RH  048%=      5-min Rain = 0
KMES 201520Z 20011G16KT 31/18 A2989 RMK A01 T03090177  RH  048%=      5-min Rain = 0
KMES 201525Z 20009G15KT 31/18 A2989 RMK A01 T03120178  RH  047%=      5-min Rain = 0
KMES 201530Z 18009KT 31/18 A2989 RMK A01 T03120179  RH  047%=      5-min Rain = 0
KMES 201535Z 18008G13KT 31/18 A2989 RMK A01 T03140178  RH  047%=      5-min Rain = 0
KMES 201540Z 18009G14KT 31/18 A2989 RMK A01 T03140179  RH  047%=      5-min Rain = 0
KMES 201545Z 19008G13KT 32/18 A2989 RMK A01 T03170179  RH  046%=      5-min Rain = 0
KMES 201550Z 19009G15KT 32/18 A2989 RMK A01 T03190178  RH  045%=      5-min Rain = 0
KMES 201555Z 20009G15KT 32/18 A2989 RMK A01 T03220180  RH  045%=      5-min Rain = 0
KMES 201600Z 20010G16KT 32/18 A2989 RMK A01 T03240179  RH  045%=      5-min Rain = 0
KMES 201605Z 19010G15KT 32/18 A2989 RMK A01 T03240177  RH  044%=      5-min Rain = 0
KMES 201610Z 20009KT 33/18 A2988 RMK A01 T03250180  RH  044%=      5-min Rain = 0
KMES 201615Z 19007G13KT 33/18 A2988 RMK A01 T03300184  RH  044%=      5-min Rain = 0
KMES 201620Z 18010G17KT 33/18 A2988 RMK A01 T03280179  RH  043%=      5-min Rain = 0
KMES 201625Z 18010G15KT 33/18 A2988 RMK A01 T03280180  RH  044%=      5-min Rain = 0
KMES 201630Z 18007KT 33/18 A2988 RMK A01 T03290182  RH  044%=      5-min Rain = 0
KMES 201635Z 18008G14KT 34/18 A2988 RMK A01 T03350183  RH  043%=      5-min Rain = 0
KMES 201640Z 19010KT 33/18 A2988 RMK A01 T03340178  RH  042%=      5-min Rain = 0
KMES 201645Z 18009KT 34/18 A2988 RMK A01 T03350181  RH  042%=      5-min Rain = 0
KMES 201650Z 17010G15KT 34/18 A2988 RMK A01 T03370182  RH  042%=      5-min Rain = 0
KMES 201655Z 16010G15KT 34/18 A2988 RMK A01 T03360183  RH  042%=      5-min Rain = 0
KMES 201700Z 18010KT 34/18 A2988 RMK A01 T03370178  RH  041%=      5-min Rain = 0
KMES 201705Z 15010KT 34/18 A2988 RMK A01 T03370181  RH  042%=      5-min Rain = 0
KMES 201710Z 16009G14KT 34/18 A2988 RMK A01 T03390183  RH  042%=      5-min Rain = 0
KMES 201715Z 15011G21KT 34/18 A2988 RMK A01 T03410181  RH  041%=      5-min Rain = 0
KMES 201720Z 16011KT 34/18 A2988 RMK A01 T03420180  RH  040%=      5-min Rain = 0
KMES 201725Z 17009G14KT 34/18 A2988 RMK A01 T03440180  RH  040%=      5-min Rain = 0
KMES 201730Z 17010KT 34/18 A2988 RMK A01 T03420180  RH  041%=      5-min Rain = 0
KMES 201735Z 15009KT 35/19 A2988 RMK A01 T03460185  RH  041%=      5-min Rain = 0
KMES 201740Z 17009G15KT 35/18 A2988 RMK A01 T03470181  RH  039%=      5-min Rain = 0
KMES 201745Z 17009G14KT 35/18 A2988 RMK A01 T03480182  RH  040%=      5-min Rain = 0
KMES 201750Z 15009G14KT 35/18 A2987 RMK A01 T03510182  RH  039%=      5-min Rain = 0
KMES 201755Z 15010G15KT 36/18 A2987 RMK A01 T03550177  RH  037%=      5-min Rain = 0
KMES 201800Z 15009G14KT 35/18 A2987 RMK A01 T03540179  RH  038%=      5-min Rain = 0
KMES 201805Z 15008G14KT 36/19 A2987 RMK A01 T03560185  RH  039%=      5-min Rain = 0
KMES 201810Z 17011G18KT 36/18 A2986 RMK A01 T03550181  RH  038%=      5-min Rain = 0
KMES 201815Z 16011KT 35/18 A2987 RMK A01 T03530180  RH  038%=      5-min Rain = 0
KMES 201820Z 16009G14KT 35/18 A2987 RMK A01 T03540177  RH  037%=      5-min Rain = 0
KMES 201825Z 15011G16KT 36/18 A2987 RMK A01 T03550179  RH  037%=      5-min Rain = 0
KMES 201830Z 14012G19KT 36/17 A2986 RMK A01 T03590173  RH  035%=      5-min Rain = 0
KMES 201835Z 15011KT 36/17 A2986 RMK A01 T03600171  RH  034%=      5-min Rain = 0
KMES 201840Z 15012G17KT 36/17 A2986 RMK A01 T03610167  RH  033%=      5-min Rain = 0
KMES 201845Z 15011G18KT 36/17 A2986 RMK A01 T03620167  RH  033%=      5-min Rain = 0
KMES 201850Z 14013G20KT 36/17 A2986 RMK A01 T03630168  RH  033%=      5-min Rain = 0
KMES 201855Z 14012G20KT 36/17 A2986 RMK A01 T03640168  RH  033%=      5-min Rain = 0
KMES 201900Z 15012G19KT 37/17 A2986 RMK A01 T03670165  RH  032%=      5-min Rain = 0
KMES 201905Z 15013G21KT 37/16 A2986 RMK A01 T03650160  RH  031%=      5-min Rain = 0
KMES 201910Z 15012G18KT 37/15 A2985 RMK A01 T03670152  RH  029%=      5-min Rain = 0
KMES 201915Z 16012G17KT 37/16 A2985 RMK A01 T03680157  RH  030%=      5-min Rain = 0
KMES 201920Z 16013G20KT 37/16 A2985 RMK A01 T03680156  RH  030%=      5-min Rain = 0
KMES 201925Z 17012G18KT 37/15 A2985 RMK A01 T03680153  RH  029%=      5-min Rain = 0
KMES 201930Z 16012G20KT 37/16 A2985 RMK A01 T03700155  RH  029%=      5-min Rain = 0
KMES 201935Z 16011G19KT 37/16 A2984 RMK A01 T03710159  RH  030%=      5-min Rain = 0
KMES 201940Z 15012G19KT 37/15 A2984 RMK A01 T03720152  RH  028%=      5-min Rain = 0
KMES 201945Z 16013G20KT 37/15 A2984 RMK A01 T03740154  RH  029%=      5-min Rain = 0
KMES 201950Z 17013G19KT 37/15 A2983 RMK A01 T03740151  RH  028%=      5-min Rain = 0
KMES 201955Z 15013G18KT 37/15 A2983 RMK A01 T03740150  RH  028%=      5-min Rain = 0
KMES 202000Z 14014G20KT 38/15 A2983 RMK A01 T03780149  RH  027%=      5-min Rain = 0
KMES 202005Z 15015G21KT 38/15 A2983 RMK A01 T03790149  RH  027%=      5-min Rain = 0
KMES 202010Z 15015G24KT 38/15 A2983 RMK A01 T03780148  RH  027%=      5-min Rain = 0
KMES 202015Z 16011G22KT 38/15 A2983 RMK A01 T03790149  RH  027%=      5-min Rain = 0
KMES 202020Z 15013G21KT 38/15 A2983 RMK A01 T03790147  RH  027%=      5-min Rain = 0
KMES 202025Z 15013G19KT 38/15 A2982 RMK A01 T03780147  RH  027%=      5-min Rain = 0
KMES 202030Z 14015G22KT 38/15 A2982 RMK A01 T03820150  RH  027%=      5-min Rain = 0
KMES 202035Z 15015G21KT 38/15 A2982 RMK A01 T03810146  RH  026%=      5-min Rain = 0
KMES 202040Z 15015G24KT 38/14 A2982 RMK A01 T03810144  RH  026%=      5-min Rain = 0
KMES 202045Z 15016G23KT 38/14 A2982 RMK A01 T03800143  RH  026%=      5-min Rain = 0
KMES 202050Z 15015G23KT 38/14 A2982 RMK A01 T03810142  RH  025%=      5-min Rain = 0
KMES 202055Z 15014KT 38/14 A2982 RMK A01 T03800141  RH  025%=      5-min Rain = 0
KMES 202100Z 16013G20KT 38/14 A2982 RMK A01 T03820141  RH  025%=      5-min Rain = 0
KMES 202105Z 15013G19KT 38/14 A2981 RMK A01 T03820141  RH  025%=      5-min Rain = 0
KMES 202110Z 16014G22KT 38/14 A2981 RMK A01 T03830140  RH  025%=      5-min Rain = 0
KMES 202115Z 16012G20KT 38/14 A2981 RMK A01 T03840143  RH  025%=      5-min Rain = 0
KMES 202120Z 16013G19KT 38/14 A2981 RMK A01 T03830140  RH  025%=      5-min Rain = 0
KMES 202125Z 15011G17KT 38/14 A2981 RMK A01 T03840143  RH  025%=      5-min Rain = 0
KMES 202130Z 16011G16KT 39/14 A2981 RMK A01 T03860141  RH  025%=      5-min Rain = 0
KMES 202135Z 15012G18KT 39/14 A2981 RMK A01 T03850141  RH  025%=      5-min Rain = 0
KMES 202140Z 14012G20KT 39/14 A2981 RMK A01 T03870144  RH  025%=      5-min Rain = 0
KMES 202145Z 14015G21KT 39/14 A298 RMK A01 T03870140  RH  024%=      5-min Rain = 0
KMES 202150Z 14014G24KT 39/14 A298 RMK A01 T03870139  RH  024%=      5-min Rain = 0
KMES 202155Z 13015G21KT 39/14 A298 RMK A01 T03880140  RH  024%=      5-min Rain = 0
KMES 202200Z 14016G21KT 39/14 A298 RMK A01 T03880136  RH  023%=      5-min Rain = 0
KMES 202205Z 14015G24KT 39/14 A298 RMK A01 T03890137  RH  023%=      5-min Rain = 0
KMES 202210Z 16014G22KT 39/14 A298 RMK A01 T03860137  RH  024%=      5-min Rain = 0
KMES 202215Z 14015G22KT 39/14 A2979 RMK A01 T03850136  RH  024%=      5-min Rain = 0
KMES 202220Z 15014G21KT 39/13 A2979 RMK A01 T03870134  RH  023%=      5-min Rain = 0
KMES 202225Z 14013KT 39/14 A298 RMK A01 T03890135  RH  023%=      5-min Rain = 0
KMES 202230Z 14011G17KT 39/14 A298 RMK A01 T03900139  RH  024%=      5-min Rain = 0
KMES 202235Z 15013KT 39/14 A2979 RMK A01 T03900136  RH  023%=      5-min Rain = 0
KMES 202240Z 15013G19KT 39/14 A2979 RMK A01 T03880135  RH  023%=      5-min Rain = 0
KMES 202245Z 15011G16KT 39/14 A2979 RMK A01 T03880135  RH  023%=      5-min Rain = 0
KMES 202250Z 14012G17KT 39/13 A2979 RMK A01 T03880134  RH  023%=      5-min Rain = 0
KMES 202255Z 15012G17KT 39/14 A2979 RMK A01 T03870135  RH  023%=      5-min Rain = 0
KMES 202300Z 14014KT 39/13 A2979 RMK A01 T03870133  RH  023%=      5-min Rain = 0
KMES 202305Z 14013G19KT 39/13 A2979 RMK A01 T03860132  RH  023%=      5-min Rain = 0
KMES 202310Z 15012G17KT 39/13 A2979 RMK A01 T03850133  RH  023%=      5-min Rain = 0
KMES 202315Z 15013G20KT 38/13 A2979 RMK A01 T03840133  RH  023%=      5-min Rain = 0
KMES 202320Z 15013G18KT 39/13 A2978 RMK A01 T03850131  RH  023%=      5-min Rain = 0
KMES 202325Z 14014G22KT 39/13 A2978 RMK A01 T03850129  RH  023%=      5-min Rain = 0
KMES 202330Z 13013G21KT 39/13 A2978 RMK A01 T03850131  RH  023%=      5-min Rain = 0
KMES 202335Z 14012G18KT 39/13 A2978 RMK A01 T03850132  RH  023%=      5-min Rain = 0
KMES 202340Z 14012G18KT 38/13 A2978 RMK A01 T03840131  RH  023%=      5-min Rain = 0
KMES 202345Z 14011G16KT 38/13 A2978 RMK A01 T03840130  RH  023%=      5-min Rain = 0
KMES 202350Z 15012G17KT 38/13 A2978 RMK A01 T03830132  RH  023%=      5-min Rain = 0
KMES 202355Z 14013G18KT 38/13 A2978 RMK A01 T03820131  RH  023%=      5-min Rain = 0
KMES 210000Z 14012G18KT 38/13 A2978 RMK A01 T03820132  RH  024%=      5-min Rain = 0
KMES 210005Z 14013G19KT 38/13 A2978 RMK A01 T03810132  RH  024%=      5-min Rain = 0
KMES 210010Z 14015G21KT 38/13 A2978 RMK A01 T03800133  RH  024%=      5-min Rain = 0
KMES 210015Z 14014G21KT 38/13 A2978 RMK A01 T03790132  RH  024%=      5-min Rain = 0
KMES 210020Z 14012G20KT 38/13 A2978 RMK A01 T03770133  RH  024%=      5-min Rain = 0
KMES 210025Z 14012G17KT 38/14 A2978 RMK A01 T03760135  RH  025%=      5-min Rain = 0
KMES 210030Z 14013G20KT 38/13 A2978 RMK A01 T03760134  RH  025%=      5-min Rain = 0
KMES 210035Z 14014G19KT 37/14 A2978 RMK A01 T03740135  RH  025%=      5-min Rain = 0
KMES 210040Z 14014G20KT 37/14 A2979 RMK A01 T03730136  RH  025%=      5-min Rain = 0
KMES 210045Z 13014G19KT 37/14 A2979 RMK A01 T03710136  RH  026%=      5-min Rain = 0
KMES 210050Z 13015G20KT 37/14 A2979 RMK A01 T03700136  RH  026%=      5-min Rain = 0
KMES 210055Z 13015G20KT 37/14 A2979 RMK A01 T03680136  RH  026%=      5-min Rain = 0
KMES 210100Z 14014G20KT 37/14 A2979 RMK A01 T03670136  RH  026%=      5-min Rain = 0
KMES 210105Z 14014G19KT 37/14 A2979 RMK A01 T03660136  RH  026%=      5-min Rain = 0
KMES 210110Z 13015KT 36/14 A2979 RMK A01 T03640138  RH  027%=      5-min Rain = 0
KMES 210115Z 13014KT 36/14 A2979 RMK A01 T03620137  RH  027%=      5-min Rain = 0
KMES 210120Z 13013G18KT 36/14 A2979 RMK A01 T03600138  RH  028%=      5-min Rain = 0
KMES 210125Z 13014KT 36/14 A298 RMK A01 T03580139  RH  028%=      5-min Rain = 0
KMES 210130Z 13012KT 36/14 A298 RMK A01 T03560141  RH  029%=      5-min Rain = 0
KMES 210135Z 13013G18KT 35/14 A298 RMK A01 T03540141  RH  029%=      5-min Rain = 0
KMES 210140Z 13014G19KT 35/14 A298 RMK A01 T03530140  RH  029%=      5-min Rain = 0
KMES 210145Z 13014G19KT 35/14 A298 RMK A01 T03520140  RH  029%=      5-min Rain = 0
KMES 210150Z 13014KT 35/14 A298 RMK A01 T03500140  RH  030%=      5-min Rain = 0
KMES 210155Z 13012KT 35/14 A298 RMK A01 T03480141  RH  030%=      5-min Rain = 0
KMES 210200Z 13012KT 35/14 A2981 RMK A01 T03460142  RH  031%=      5-min Rain = 0
KMES 210205Z 12012G17KT 34/14 A2981 RMK A01 T03430143  RH  031%=      5-min Rain = 0
KMES 210210Z 13013G19KT 34/14 A2981 RMK A01 T03410144  RH  032%=      5-min Rain = 0
KMES 210215Z 12012G17KT 34/15 A2981 RMK A01 T03390145  RH  032%=      5-min Rain = 0
KMES 210220Z 12011KT 34/15 A2981 RMK A01 T03370145  RH  033%=      5-min Rain = 0
KMES 210225Z 13011G16KT 34/15 A2981 RMK A01 T03350145  RH  033%=      5-min Rain = 0
KMES 210230Z 13012G17KT 33/15 A2982 RMK A01 T03340145  RH  033%=      5-min Rain = 0
KMES 210235Z 13011KT 33/15 A2982 RMK A01 T03340145  RH  034%=      5-min Rain = 0
KMES 210240Z 13011KT 33/15 A2982 RMK A01 T03320146  RH  034%=      5-min Rain = 0
KMES 210245Z 13012G18KT 33/15 A2982 RMK A01 T03310145  RH  034%=      5-min Rain = 0
KMES 210250Z 13011KT 33/15 A2982 RMK A01 T03300145  RH  034%=      5-min Rain = 0
KMES 210255Z 13012G17KT 33/15 A2983 RMK A01 T03290146  RH  035%=      5-min Rain = 0
KMES 210300Z 12011G17KT 33/15 A2983 RMK A01 T03270147  RH  035%=      5-min Rain = 0
KMES 210305Z 12011G16KT 33/15 A2983 RMK A01 T03250149  RH  036%=      5-min Rain = 0
KMES 210310Z 13012G19KT 32/15 A2983 RMK A01 T03240151  RH  037%=      5-min Rain = 0
KMES 210315Z 12012G17KT 32/15 A2984 RMK A01 T03220153  RH  038%=      5-min Rain = 0
KMES 210320Z 13012G17KT 32/15 A2984 RMK A01 T03210154  RH  038%=      5-min Rain = 0
KMES 210325Z 13012KT 32/16 A2984 RMK A01 T03200155  RH  039%=      5-min Rain = 0
KMES 210330Z 13011KT 32/16 A2985 RMK A01 T03190155  RH  039%=      5-min Rain = 0
KMES 210335Z 13011G16KT 32/16 A2985 RMK A01 T03180155  RH  039%=      5-min Rain = 0
KMES 210340Z 13010KT 32/16 A2985 RMK A01 T03170155  RH  039%=      5-min Rain = 0
KMES 210345Z 12009KT 32/16 A2986 RMK A01 T03150156  RH  040%=      5-min Rain = 0
KMES 210350Z 12009KT 31/16 A2986 RMK A01 T03130157  RH  041%=      5-min Rain = 0
KMES 210355Z 12008KT 31/16 A2986 RMK A01 T03110158  RH  042%=      5-min Rain = 0
KMES 210400Z 12010KT 31/16 A2987 RMK A01 T03090159  RH  042%=      5-min Rain = 0
KMES 210405Z 12009G14KT 31/16 A2987 RMK A01 T03080160  RH  043%=      5-min Rain = 0
KMES 210410Z 12009G14KT 31/16 A2987 RMK A01 T03070161  RH  044%=      5-min Rain = 0
KMES 210415Z 12009KT 31/16 A2987 RMK A01 T03050161  RH  044%=      5-min Rain = 0
KMES 210420Z 12009KT 30/16 A2987 RMK A01 T03040161  RH  044%=      5-min Rain = 0
KMES 210425Z 12009KT 30/16 A2987 RMK A01 T03030161  RH  045%=      5-min Rain = 0
KMES 210430Z 12009KT 30/16 A2988 RMK A01 T03020161  RH  045%=      5-min Rain = 0
KMES 210435Z 12008KT 30/16 A2988 RMK A01 T03010161  RH  045%=      5-min Rain = 0
KMES 210440Z 12008KT 30/16 A2988 RMK A01 T03000161  RH  045%=      5-min Rain = 0
KMES 210445Z 12008KT 30/16 A2988 RMK A01 T02980160  RH  045%=      5-min Rain = 0
KMES 210450Z 13008KT 30/16 A2988 RMK A01 T02970160  RH  046%=      5-min Rain = 0
KMES 210455Z 13008KT 30/16 A2988 RMK A01 T02960160  RH  046%=      5-min Rain = 0

Page generated in 0.0469 seconds.